Airfield :
LOGIN :

Register | Disclaimer

   EN    FR    IT 

 










Legend :    VFR   Marginal VFR   IFR   Intensive IFR   Very Intensive IFR
Visi :
Ceiling :
>= 8 km
>= 3000ft
5 to 8 km
1000 to 3000 ft
1500m to 5 km
500 to 1000 ft
800 to 1500m
200 to 500 ft
< 800m
< 200 ft
Symbols :   Thunderstorms  Fog  Heavy snow  Heavy precipitations  Wind > 20 kt
SIGMETs :     Misc.  Thunderstorms  Icing  Turbulence  Mountain Waves  Volcanic Ashes







- Airport Elevation : 7 ft
- IATA code : ESH
- Download approach charts


EGKA - Shoreham

CURRENT METAR :
  • 231450Z 07007KT 9999 FEW022 BKN026 12/07 Q1031

EXPIRED METARs :
  • 231420Z 04008KT 9999 FEW022 BKN026 12/07 Q1031
  • 231350Z 05009KT 9999 FEW022 BKN032 12/08 Q1031
  • 231320Z 03008KT 9999 SCT022 BKN040 12/08 Q1031
  • 231250Z 03010KT 9999 BKN022 BKN040 12/07 Q1031
  • 231220Z 03009KT 9999 BKN021 12/08 Q1031

TAF TAF EGKA
Valid from the 23 at 15:00 until the 23 at 19:00 UTC


231358Z 2315/2319 07008KT 9999 SCT030
ATIS : +44 1273 467 372
No reported NOTAMs for that airfield.



MET'MAP, your aeronautical weather chart ! - Copyright ORBIFLY December 2007 - Disclaimer

ORBIFLY MET'MAP TEAM :

Programming & Development : Alexandra Zaïnal
Concept & Development : Baudouin d'Aumeries
Co-Development & Prog : Marc-Olivier Méhu
Technical & hardware support : Manuel Goepfert

Contact : metmap@orbifly.com




SOURCES & CREDITS :

   NOAA